createdAt,value
2018-11-20T00:00:11.689Z,20.921472
2018-11-20T00:00:24.126Z,20.921472
2018-11-20T00:00:36.702Z,20.921472
2018-11-20T00:00:49.081Z,20.921472
2018-11-20T00:01:01.476Z,20.921472
2018-11-20T00:01:13.855Z,8.04672
2018-11-20T00:01:26.257Z,9.656064
2018-11-20T00:01:38.921Z,9.656064
2018-11-20T00:01:51.298Z,9.656064
2018-11-20T00:02:03.678Z,9.656064
2018-11-20T00:02:16.079Z,8.04672
2018-11-20T00:02:28.467Z,12.874752
2018-11-20T00:02:40.851Z,16.09344
2018-11-20T00:02:53.235Z,25.749504
2018-11-20T00:03:05.755Z,28.968192
2018-11-20T00:03:18.160Z,28.968192
2018-11-20T00:03:30.565Z,28.968192
2018-11-20T00:03:42.984Z,28.968192
2018-11-20T00:03:55.381Z,28.968192
2018-11-20T00:04:07.765Z,4.828032
2018-11-20T00:04:20.163Z,11.265408
2018-11-20T00:04:32.749Z,16.09344
2018-11-20T00:04:45.154Z,16.09344
2018-11-20T00:04:57.732Z,16.09344
2018-11-20T00:05:10.687Z,1.609344
2018-11-20T00:05:24.336Z,3.218688
2018-11-20T00:05:37.464Z,11.265408
2018-11-20T00:05:49.886Z,11.265408
2018-11-20T00:06:02.264Z,22.530816
2018-11-20T00:06:14.647Z,17.702784
2018-11-20T00:06:27.044Z,17.702784
2018-11-20T00:06:39.680Z,17.702784
2018-11-20T00:06:52.053Z,17.702784
2018-11-20T00:07:04.449Z,11.265408
2018-11-20T00:07:16.968Z,11.265408
2018-11-20T00:07:29.360Z,11.265408
2018-11-20T00:07:41.802Z,11.265408
2018-11-20T00:07:54.174Z,12.874752
2018-11-20T00:08:06.557Z,17.702784
2018-11-20T00:08:18.942Z,25.749504
2018-11-20T00:08:31.488Z,28.968192
2018-11-20T00:08:43.908Z,33.796224
2018-11-20T00:08:56.303Z,33.796224
2018-11-20T00:09:08.735Z,9.656064
2018-11-20T00:09:21.129Z,11.265408
2018-11-20T00:09:33.524Z,11.265408
2018-11-20T00:09:45.915Z,16.09344
2018-11-20T00:09:58.303Z,16.09344
2018-11-20T00:10:10.703Z,11.265408
2018-11-20T00:10:23.099Z,11.265408
2018-11-20T00:10:35.485Z,11.265408
2018-11-20T00:10:47.869Z,11.265408
2018-11-20T00:11:00.252Z,17.702784
2018-11-20T00:11:12.653Z,11.265408
2018-11-20T00:11:25.032Z,11.265408
2018-11-20T00:11:37.418Z,11.265408
2018-11-20T00:11:49.827Z,12.874752
2018-11-20T00:12:02.233Z,16.09344
2018-11-20T00:12:14.635Z,11.265408
2018-11-20T00:12:27.052Z,11.265408
2018-11-20T00:12:39.476Z,11.265408
2018-11-20T00:12:52.004Z,11.265408
2018-11-20T00:13:04.422Z,6.437376
2018-11-20T00:13:16.820Z,11.265408
2018-11-20T00:13:29.195Z,11.265408
2018-11-20T00:13:41.567Z,11.265408
2018-11-20T00:13:53.962Z,11.265408
2018-11-20T00:14:06.362Z,8.04672
2018-11-20T00:14:18.741Z,9.656064
2018-11-20T00:14:31.129Z,14.484096
2018-11-20T00:14:43.525Z,14.484096
2018-11-20T00:14:55.959Z,14.484096
2018-11-20T00:15:08.347Z,6.437376
2018-11-20T00:15:20.734Z,8.04672
2018-11-20T00:15:33.110Z,8.04672
2018-11-20T00:15:45.500Z,12.874752
2018-11-20T00:15:57.883Z,12.874752
2018-11-20T00:16:10.282Z,14.484096
2018-11-20T00:16:22.692Z,19.312128
2018-11-20T00:16:35.785Z,19.312128
2018-11-20T00:16:48.176Z,19.312128
2018-11-20T00:17:00.555Z,19.312128
2018-11-20T00:17:12.950Z,9.656064
2018-11-20T00:17:25.350Z,11.265408
2018-11-20T00:17:37.732Z,11.265408
2018-11-20T00:17:50.116Z,11.265408
2018-11-20T00:18:02.518Z,11.265408
2018-11-20T00:18:14.905Z,9.656064
2018-11-20T00:18:27.300Z,9.656064
2018-11-20T00:18:39.747Z,9.656064
2018-11-20T00:18:52.150Z,9.656064
2018-11-20T00:19:04.537Z,8.04672
2018-11-20T00:19:16.938Z,8.04672
2018-11-20T00:19:29.323Z,8.04672
2018-11-20T00:19:41.732Z,8.04672
2018-11-20T00:19:54.114Z,12.874752
2018-11-20T00:20:06.681Z,12.874752
2018-11-20T00:20:19.187Z,12.874752
2018-11-20T00:20:31.579Z,12.874752
2018-11-20T00:20:43.962Z,12.874752
2018-11-20T00:20:56.362Z,12.874752
2018-11-20T00:21:08.746Z,9.656064
2018-11-20T00:21:21.156Z,17.702784
2018-11-20T00:21:33.697Z,17.702784
2018-11-20T00:21:46.081Z,17.702784
2018-11-20T00:21:58.460Z,19.312128
2018-11-20T00:22:10.897Z,14.484096
2018-11-20T00:22:23.273Z,14.484096
2018-11-20T00:22:35.651Z,14.484096
2018-11-20T00:22:48.024Z,19.312128
2018-11-20T00:23:00.411Z,19.312128
2018-11-20T00:23:12.820Z,11.265408
2018-11-20T00:23:25.198Z,11.265408
2018-11-20T00:23:37.600Z,11.265408
2018-11-20T00:23:49.975Z,11.265408
2018-11-20T00:24:02.379Z,11.265408
2018-11-20T00:24:14.844Z,12.874752
2018-11-20T00:24:27.218Z,12.874752
2018-11-20T00:24:39.595Z,12.874752
2018-11-20T00:24:51.994Z,12.874752
2018-11-20T00:25:04.389Z,16.09344
2018-11-20T00:25:16.804Z,19.312128
2018-11-20T00:25:29.184Z,19.312128
2018-11-20T00:25:41.673Z,19.312128
2018-11-20T00:25:54.220Z,19.312128
2018-11-20T00:26:06.615Z,3.218688
2018-11-20T00:26:19.027Z,4.828032
2018-11-20T00:26:31.415Z,16.09344
2018-11-20T00:26:43.793Z,16.09344
2018-11-20T00:26:56.197Z,16.09344
2018-11-20T00:27:08.736Z,11.265408
2018-11-20T00:27:21.112Z,14.484096
2018-11-20T00:27:33.494Z,20.921472
2018-11-20T00:27:45.878Z,20.921472
2018-11-20T00:27:58.265Z,20.921472
2018-11-20T00:28:10.643Z,16.09344
2018-11-20T00:28:23.030Z,16.09344
2018-11-20T00:28:35.419Z,16.09344
2018-11-20T00:28:47.837Z,16.09344
2018-11-20T00:29:00.236Z,17.702784
2018-11-20T00:29:12.636Z,11.265408
2018-11-20T00:29:25.043Z,11.265408
2018-11-20T00:29:37.436Z,11.265408
2018-11-20T00:29:49.972Z,12.874752
2018-11-20T00:30:02.351Z,12.874752
2018-11-20T00:30:14.733Z,16.09344
2018-11-20T00:30:27.125Z,16.09344
2018-11-20T00:30:39.522Z,16.09344
2018-11-20T00:30:51.902Z,16.09344
2018-11-20T00:31:04.281Z,6.437376
2018-11-20T00:31:16.692Z,8.04672
2018-11-20T00:31:29.074Z,8.04672
2018-11-20T00:31:41.449Z,9.656064
2018-11-20T00:31:53.834Z,12.874752
2018-11-20T00:32:06.257Z,6.437376
2018-11-20T00:32:18.643Z,6.437376
2018-11-20T00:32:31.025Z,6.437376
2018-11-20T00:32:43.398Z,6.437376
2018-11-20T00:32:55.792Z,6.437376
2018-11-20T00:33:08.202Z,1.609344
2018-11-20T00:33:20.577Z,3.218688
2018-11-20T00:33:33.237Z,3.218688
2018-11-20T00:33:45.605Z,3.218688
2018-11-20T00:33:57.991Z,3.218688
2018-11-20T00:34:10.410Z,3.218688
2018-11-20T00:34:22.794Z,12.874752
2018-11-20T00:34:35.191Z,12.874752
2018-11-20T00:34:47.582Z,14.484096
2018-11-20T00:34:59.990Z,14.484096
2018-11-20T00:35:12.401Z,3.218688
2018-11-20T00:35:24.789Z,3.218688
2018-11-20T00:35:37.180Z,3.218688
2018-11-20T00:35:49.609Z,3.218688
2018-11-20T00:36:01.990Z,6.437376
2018-11-20T00:36:14.384Z,3.218688
2018-11-20T00:36:26.838Z,3.218688
2018-11-20T00:36:39.314Z,3.218688
2018-11-20T00:36:51.874Z,3.218688
2018-11-20T00:37:04.252Z,3.218688
2018-11-20T00:37:16.646Z,9.656064
2018-11-20T00:37:29.037Z,9.656064
2018-11-20T00:37:41.428Z,9.656064
2018-11-20T00:37:53.829Z,9.656064
2018-11-20T00:38:06.207Z,0
2018-11-20T00:38:18.590Z,3.218688
2018-11-20T00:38:30.961Z,9.656064
2018-11-20T00:38:43.347Z,19.312128
2018-11-20T00:38:55.773Z,20.921472
2018-11-20T00:39:08.172Z,11.265408
2018-11-20T00:39:20.541Z,11.265408
2018-11-20T00:39:32.920Z,11.265408
2018-11-20T00:39:45.304Z,12.874752
2018-11-20T00:39:57.695Z,12.874752
2018-11-20T00:40:10.121Z,4.828032
2018-11-20T00:40:22.508Z,14.484096
2018-11-20T00:40:34.897Z,14.484096
2018-11-20T00:40:47.286Z,14.484096
2018-11-20T00:40:59.673Z,14.484096
2018-11-20T00:41:12.044Z,11.265408
2018-11-20T00:41:24.437Z,11.265408
2018-11-20T00:41:36.844Z,11.265408
2018-11-20T00:41:49.282Z,11.265408
2018-11-20T00:42:01.661Z,11.265408
2018-11-20T00:42:14.048Z,3.218688
2018-11-20T00:42:27.181Z,6.437376
2018-11-20T00:42:41.276Z,6.437376
2018-11-20T00:42:53.922Z,6.437376
2018-11-20T00:43:06.296Z,4.828032
2018-11-20T00:43:18.684Z,12.874752
2018-11-20T00:43:31.069Z,14.484096
2018-11-20T00:43:43.458Z,14.484096
2018-11-20T00:43:55.838Z,14.484096
2018-11-20T00:44:08.243Z,11.265408
2018-11-20T00:44:20.676Z,11.265408
2018-11-20T00:44:33.063Z,11.265408
2018-11-20T00:44:45.465Z,11.265408
2018-11-20T00:44:57.854Z,11.265408
2018-11-20T00:45:10.272Z,1.609344
2018-11-20T00:45:22.723Z,1.609344
2018-11-20T00:45:35.110Z,9.656064
2018-11-20T00:45:47.518Z,9.656064
2018-11-20T00:45:59.962Z,16.09344
2018-11-20T00:46:12.341Z,17.702784
2018-11-20T00:46:24.727Z,17.702784
2018-11-20T00:46:37.540Z,17.702784
2018-11-20T00:46:49.925Z,17.702784
2018-11-20T00:47:02.322Z,19.312128
2018-11-20T00:47:14.761Z,17.702784
2018-11-20T00:47:27.158Z,17.702784
2018-11-20T00:47:39.548Z,17.702784
2018-11-20T00:47:51.998Z,17.702784
2018-11-20T00:48:04.370Z,17.702784
2018-11-20T00:48:16.791Z,11.265408
2018-11-20T00:48:29.174Z,12.874752
2018-11-20T00:48:41.575Z,12.874752
2018-11-20T00:48:53.954Z,12.874752
2018-11-20T00:49:06.450Z,9.656064
2018-11-20T00:49:18.834Z,14.484096
2018-11-20T00:49:31.224Z,14.484096
2018-11-20T00:49:44.257Z,14.484096
2018-11-20T00:49:56.774Z,14.484096
2018-11-20T00:50:09.188Z,1.609344
2018-11-20T00:50:21.922Z,3.218688
2018-11-20T00:50:34.665Z,3.218688
2018-11-20T00:50:47.044Z,8.04672
2018-11-20T00:50:59.453Z,9.656064
2018-11-20T00:51:11.842Z,8.04672
2018-11-20T00:51:24.239Z,8.04672
2018-11-20T00:51:36.711Z,9.656064
2018-11-20T00:51:49.112Z,9.656064
2018-11-20T00:52:01.604Z,9.656064
2018-11-20T00:52:13.980Z,11.265408
2018-11-20T00:52:26.499Z,11.265408
2018-11-20T00:52:38.911Z,11.265408
2018-11-20T00:52:51.298Z,11.265408
2018-11-20T00:53:03.739Z,11.265408
2018-11-20T00:53:16.116Z,1.609344
2018-11-20T00:53:28.489Z,22.530816
2018-11-20T00:53:40.953Z,22.530816
2018-11-20T00:53:53.381Z,22.530816
2018-11-20T00:54:05.811Z,12.874752
2018-11-20T00:54:18.216Z,12.874752
2018-11-20T00:54:30.836Z,14.484096
2018-11-20T00:54:43.903Z,14.484096
2018-11-20T00:54:56.286Z,14.484096
2018-11-20T00:55:08.675Z,3.218688
2018-11-20T00:55:21.070Z,6.437376
2018-11-20T00:55:33.469Z,9.656064
2018-11-20T00:55:45.871Z,9.656064
2018-11-20T00:55:58.362Z,9.656064
2018-11-20T00:56:10.759Z,1.609344
2018-11-20T00:56:23.471Z,1.609344
2018-11-20T00:56:36.001Z,1.609344
2018-11-20T00:56:48.390Z,8.04672
2018-11-20T00:57:00.805Z,11.265408
2018-11-20T00:57:14.678Z,16.09344
2018-11-20T00:57:27.695Z,16.09344
2018-11-20T00:57:40.076Z,16.09344
2018-11-20T00:57:52.476Z,16.09344
2018-11-20T00:58:04.884Z,3.218688
2018-11-20T00:58:17.287Z,3.218688
2018-11-20T00:58:29.665Z,3.218688
2018-11-20T00:58:42.057Z,11.265408
2018-11-20T00:58:54.475Z,11.265408
2018-11-20T00:59:06.865Z,3.218688
2018-11-20T00:59:19.314Z,3.218688
2018-11-20T00:59:31.863Z,6.437376
2018-11-20T00:59:44.273Z,8.04672
2018-11-20T00:59:56.686Z,8.04672
2018-11-20T01:00:09.102Z,8.04672
2018-11-20T01:00:21.542Z,8.04672
2018-11-20T01:00:33.939Z,8.04672
2018-11-20T01:00:46.420Z,8.04672
2018-11-20T01:00:58.797Z,14.484096
2018-11-20T01:01:11.176Z,12.874752
2018-11-20T01:01:23.635Z,12.874752
2018-11-20T01:01:36.103Z,12.874752
2018-11-20T01:01:48.483Z,16.09344
2018-11-20T01:02:00.883Z,16.09344
2018-11-20T01:02:13.378Z,6.437376
2018-11-20T01:02:26.349Z,6.437376
2018-11-20T01:02:38.749Z,9.656064
2018-11-20T01:02:51.143Z,12.874752
2018-11-20T01:03:03.878Z,19.312128
2018-11-20T01:03:16.281Z,19.312128
2018-11-20T01:03:28.670Z,19.312128
2018-11-20T01:03:41.353Z,19.312128
2018-11-20T01:03:55.410Z,19.312128
2018-11-20T01:04:07.809Z,9.656064
2018-11-20T01:04:20.186Z,9.656064
2018-11-20T01:04:32.560Z,9.656064
2018-11-20T01:04:44.949Z,9.656064
2018-11-20T01:04:57.410Z,9.656064
2018-11-20T01:05:10.338Z,3.218688
2018-11-20T01:05:22.931Z,8.04672
2018-11-20T01:05:36.436Z,9.656064
2018-11-20T01:05:49.010Z,9.656064
2018-11-20T01:06:01.445Z,9.656064
2018-11-20T01:06:13.825Z,4.828032
2018-11-20T01:06:26.217Z,4.828032
2018-11-20T01:06:38.998Z,6.437376
2018-11-20T01:06:51.402Z,6.437376
2018-11-20T01:07:03.784Z,12.874752
2018-11-20T01:07:16.428Z,12.874752
2018-11-20T01:07:28.822Z,12.874752
2018-11-20T01:07:41.229Z,12.874752
2018-11-20T01:07:53.620Z,12.874752
2018-11-20T01:08:06.006Z,14.484096
2018-11-20T01:08:18.406Z,16.09344
2018-11-20T01:08:30.973Z,16.09344
2018-11-20T01:08:43.367Z,16.09344
2018-11-20T01:08:55.824Z,16.09344
2018-11-20T01:09:08.196Z,8.04672
2018-11-20T01:09:20.576Z,8.04672
2018-11-20T01:09:32.971Z,8.04672
2018-11-20T01:09:45.362Z,8.04672
2018-11-20T01:09:57.897Z,11.265408
2018-11-20T01:10:10.325Z,16.09344
2018-11-20T01:10:22.729Z,19.312128
2018-11-20T01:10:35.344Z,19.312128
2018-11-20T01:10:47.718Z,19.312128
2018-11-20T01:11:00.127Z,19.312128
2018-11-20T01:11:12.610Z,16.09344
2018-11-20T01:11:25.013Z,16.09344
2018-11-20T01:11:37.393Z,16.09344
2018-11-20T01:11:49.845Z,16.09344
2018-11-20T01:12:02.286Z,16.09344
2018-11-20T01:12:14.661Z,14.484096
2018-11-20T01:12:27.099Z,14.484096
2018-11-20T01:12:39.485Z,14.484096
2018-11-20T01:12:52.977Z,14.484096
2018-11-20T01:13:05.540Z,8.04672
2018-11-20T01:13:17.915Z,8.04672
2018-11-20T01:13:30.300Z,8.04672
2018-11-20T01:13:42.676Z,9.656064
2018-11-20T01:13:55.091Z,9.656064
2018-11-20T01:14:07.764Z,12.874752
2018-11-20T01:14:20.157Z,12.874752
2018-11-20T01:14:32.553Z,12.874752
2018-11-20T01:14:44.935Z,12.874752
2018-11-20T01:14:57.428Z,12.874752
2018-11-20T01:15:09.816Z,6.437376
2018-11-20T01:15:22.260Z,6.437376
2018-11-20T01:15:34.688Z,8.04672
2018-11-20T01:15:47.084Z,11.265408
2018-11-20T01:15:59.486Z,11.265408
2018-11-20T01:16:11.869Z,8.04672
2018-11-20T01:16:24.255Z,11.265408
2018-11-20T01:16:36.982Z,11.265408
2018-11-20T01:16:49.501Z,11.265408
2018-11-20T01:17:01.914Z,11.265408
2018-11-20T01:17:14.295Z,14.484096
2018-11-20T01:17:26.684Z,14.484096
2018-11-20T01:17:39.067Z,14.484096
2018-11-20T01:17:51.473Z,14.484096
2018-11-20T01:18:03.854Z,14.484096
2018-11-20T01:18:16.253Z,11.265408
2018-11-20T01:18:28.780Z,12.874752
2018-11-20T01:18:41.163Z,12.874752
2018-11-20T01:18:53.555Z,12.874752
2018-11-20T01:19:06.030Z,8.04672
2018-11-20T01:19:18.405Z,8.04672
2018-11-20T01:19:30.803Z,9.656064
2018-11-20T01:19:43.203Z,9.656064
2018-11-20T01:19:55.749Z,9.656064
2018-11-20T01:20:08.156Z,8.04672
2018-11-20T01:20:20.642Z,12.874752
2018-11-20T01:20:33.025Z,12.874752
2018-11-20T01:20:45.435Z,14.484096
2018-11-20T01:20:57.805Z,17.702784
2018-11-20T01:21:10.182Z,12.874752
2018-11-20T01:21:22.612Z,12.874752
2018-11-20T01:21:35.008Z,12.874752
2018-11-20T01:21:47.384Z,14.484096
2018-11-20T01:21:59.771Z,14.484096
2018-11-20T01:22:12.167Z,12.874752
2018-11-20T01:22:24.558Z,17.702784
2018-11-20T01:22:36.957Z,17.702784
2018-11-20T01:22:49.386Z,25.749504
2018-11-20T01:23:01.759Z,25.749504
2018-11-20T01:23:14.134Z,25.749504
2018-11-20T01:23:26.504Z,25.749504
2018-11-20T01:23:38.877Z,25.749504
2018-11-20T01:23:51.257Z,25.749504
2018-11-20T01:24:03.675Z,25.749504
2018-11-20T01:24:16.052Z,19.312128
2018-11-20T01:24:28.436Z,19.312128
2018-11-20T01:24:40.811Z,19.312128
2018-11-20T01:24:53.176Z,19.312128
2018-11-20T01:25:05.687Z,6.437376
2018-11-20T01:25:18.141Z,9.656064
2018-11-20T01:25:30.519Z,9.656064
2018-11-20T01:25:43.052Z,9.656064
2018-11-20T01:25:55.442Z,9.656064
2018-11-20T01:26:07.873Z,8.04672
2018-11-20T01:26:20.292Z,17.702784
2018-11-20T01:26:32.720Z,17.702784
2018-11-20T01:26:45.165Z,17.702784
2018-11-20T01:26:57.546Z,17.702784
2018-11-20T01:27:09.921Z,12.874752
2018-11-20T01:27:22.299Z,12.874752
2018-11-20T01:27:34.900Z,12.874752
2018-11-20T01:27:47.279Z,12.874752
2018-11-20T01:27:59.654Z,12.874752
2018-11-20T01:28:12.053Z,8.04672
2018-11-20T01:28:24.449Z,8.04672
2018-11-20T01:28:36.837Z,8.04672
2018-11-20T01:28:49.292Z,8.04672
2018-11-20T01:29:01.690Z,9.656064
2018-11-20T01:29:14.092Z,4.828032
2018-11-20T01:29:26.485Z,6.437376
2018-11-20T01:29:38.882Z,6.437376
2018-11-20T01:29:51.908Z,6.437376
2018-11-20T01:30:04.326Z,11.265408
2018-11-20T01:30:16.707Z,14.484096
2018-11-20T01:30:29.113Z,19.312128
2018-11-20T01:30:41.489Z,19.312128
2018-11-20T01:30:53.884Z,19.312128
2018-11-20T01:31:06.261Z,11.265408
2018-11-20T01:31:18.680Z,12.874752
2018-11-20T01:31:31.061Z,16.09344
2018-11-20T01:31:43.475Z,16.09344
2018-11-20T01:31:55.933Z,16.09344
2018-11-20T01:32:08.339Z,9.656064
2018-11-20T01:32:20.740Z,17.702784
2018-11-20T01:32:33.135Z,17.702784
2018-11-20T01:32:45.517Z,17.702784
2018-11-20T01:32:57.924Z,28.968192
2018-11-20T01:33:10.313Z,20.921472
2018-11-20T01:33:22.725Z,20.921472
2018-11-20T01:33:35.484Z,20.921472
2018-11-20T01:33:47.874Z,20.921472
2018-11-20T01:34:00.256Z,20.921472
2018-11-20T01:34:12.707Z,11.265408
2018-11-20T01:34:25.120Z,11.265408
2018-11-20T01:34:37.521Z,11.265408
2018-11-20T01:34:49.936Z,11.265408
2018-11-20T01:35:02.346Z,11.265408
2018-11-20T01:35:14.728Z,6.437376
2018-11-20T01:35:27.106Z,9.656064
2018-11-20T01:35:39.565Z,9.656064
2018-11-20T01:35:51.961Z,9.656064
2018-11-20T01:36:04.345Z,9.656064
2018-11-20T01:36:16.807Z,9.656064
2018-11-20T01:36:29.381Z,11.265408
2018-11-20T01:36:41.910Z,11.265408
2018-11-20T01:36:54.553Z,11.265408
2018-11-20T01:37:06.949Z,9.656064
2018-11-20T01:37:19.356Z,14.484096
2018-11-20T01:37:31.717Z,14.484096
2018-11-20T01:37:44.126Z,14.484096
2018-11-20T01:37:56.509Z,14.484096
2018-11-20T01:38:08.892Z,6.437376
2018-11-20T01:38:21.274Z,6.437376
2018-11-20T01:38:33.660Z,6.437376
2018-11-20T01:38:46.040Z,8.04672
2018-11-20T01:38:58.411Z,9.656064
2018-11-20T01:39:10.776Z,9.656064
2018-11-20T01:39:23.145Z,12.874752
2018-11-20T01:39:35.676Z,12.874752
2018-11-20T01:39:48.096Z,12.874752
2018-11-20T01:40:00.473Z,12.874752
2018-11-20T01:40:12.879Z,3.218688
2018-11-20T01:40:25.281Z,9.656064
2018-11-20T01:40:37.677Z,14.484096
2018-11-20T01:40:50.067Z,14.484096
2018-11-20T01:41:02.460Z,14.484096
2018-11-20T01:41:14.996Z,9.656064
2018-11-20T01:41:28.455Z,16.09344
2018-11-20T01:41:42.036Z,16.09344
2018-11-20T01:41:54.423Z,16.09344
2018-11-20T01:42:06.813Z,11.265408
2018-11-20T01:42:19.192Z,14.484096
2018-11-20T01:42:31.597Z,14.484096
2018-11-20T01:42:44.020Z,14.484096
2018-11-20T01:42:56.398Z,14.484096
2018-11-20T01:43:08.784Z,3.218688
2018-11-20T01:43:21.164Z,8.04672
2018-11-20T01:43:33.553Z,16.09344
2018-11-20T01:43:45.955Z,16.09344
2018-11-20T01:43:58.347Z,16.09344
2018-11-20T01:44:10.732Z,9.656064
2018-11-20T01:44:23.123Z,9.656064
2018-11-20T01:44:35.529Z,11.265408
2018-11-20T01:44:47.916Z,11.265408
2018-11-20T01:45:00.290Z,14.484096
2018-11-20T01:45:12.696Z,24.14016
2018-11-20T01:45:25.422Z,25.749504
2018-11-20T01:45:37.824Z,25.749504
2018-11-20T01:45:50.254Z,25.749504
2018-11-20T01:46:02.650Z,25.749504
2018-11-20T01:46:15.026Z,8.04672
2018-11-20T01:46:27.490Z,11.265408
2018-11-20T01:46:39.932Z,16.09344
2018-11-20T01:46:52.329Z,16.09344
2018-11-20T01:47:04.713Z,8.04672
2018-11-20T01:47:17.090Z,8.04672
2018-11-20T01:47:29.518Z,9.656064
2018-11-20T01:47:41.923Z,12.874752
2018-11-20T01:47:54.299Z,12.874752
2018-11-20T01:48:06.701Z,3.218688
2018-11-20T01:48:19.075Z,4.828032
2018-11-20T01:48:31.472Z,4.828032
2018-11-20T01:48:43.864Z,9.656064
2018-11-20T01:48:56.257Z,9.656064
2018-11-20T01:49:08.785Z,4.828032
2018-11-20T01:49:21.188Z,12.874752
2018-11-20T01:49:33.577Z,12.874752
2018-11-20T01:49:45.959Z,12.874752
2018-11-20T01:49:58.530Z,12.874752
2018-11-20T01:50:10.924Z,1.609344
2018-11-20T01:50:23.329Z,1.609344
2018-11-20T01:50:35.848Z,1.609344
2018-11-20T01:50:48.253Z,8.04672
2018-11-20T01:51:00.644Z,9.656064
2018-11-20T01:51:13.367Z,12.874752
2018-11-20T01:51:26.787Z,12.874752
2018-11-20T01:51:40.404Z,16.09344
2018-11-20T01:51:52.967Z,16.09344
2018-11-20T01:52:05.352Z,11.265408
2018-11-20T01:52:17.740Z,17.702784
2018-11-20T01:52:30.124Z,17.702784
2018-11-20T01:52:42.558Z,17.702784
2018-11-20T01:52:54.949Z,17.702784
2018-11-20T01:53:07.341Z,14.484096
2018-11-20T01:53:19.736Z,14.484096
2018-11-20T01:53:32.140Z,14.484096
2018-11-20T01:53:44.544Z,14.484096
2018-11-20T01:53:56.937Z,14.484096
2018-11-20T01:54:09.333Z,9.656064
2018-11-20T01:54:21.726Z,9.656064
2018-11-20T01:54:34.097Z,12.874752
2018-11-20T01:54:46.477Z,17.702784
2018-11-20T01:54:58.857Z,17.702784
2018-11-20T01:55:11.903Z,24.14016
2018-11-20T01:55:24.298Z,24.14016
2018-11-20T01:55:36.692Z,24.14016
2018-11-20T01:55:49.111Z,24.14016
2018-11-20T01:56:01.504Z,24.14016
2018-11-20T01:56:13.881Z,16.09344
2018-11-20T01:56:26.260Z,16.09344
2018-11-20T01:56:38.630Z,16.09344
2018-11-20T01:56:51.019Z,16.09344
2018-11-20T01:57:03.435Z,16.09344
2018-11-20T01:57:15.828Z,24.14016
2018-11-20T01:57:28.236Z,24.14016
2018-11-20T01:57:40.612Z,24.14016
2018-11-20T01:57:52.993Z,24.14016
2018-11-20T01:58:05.404Z,1.609344
2018-11-20T01:58:17.803Z,1.609344
2018-11-20T01:58:30.236Z,1.609344
2018-11-20T01:58:42.631Z,1.609344
2018-11-20T01:58:55.011Z,1.609344
2018-11-20T01:59:07.414Z,1.609344
2018-11-20T01:59:19.806Z,8.04672
2018-11-20T01:59:32.335Z,8.04672
2018-11-20T01:59:44.801Z,8.04672
2018-11-20T01:59:57.192Z,8.04672
2018-11-20T02:00:09.650Z,6.437376
2018-11-20T02:00:22.066Z,8.04672
2018-11-20T02:00:34.482Z,12.874752
2018-11-20T02:00:46.893Z,12.874752
2018-11-20T02:00:59.283Z,12.874752
2018-11-20T02:01:11.692Z,3.218688
2018-11-20T02:01:24.084Z,12.874752
2018-11-20T02:01:36.608Z,12.874752
2018-11-20T02:01:48.991Z,14.484096
2018-11-20T02:02:01.514Z,14.484096
2018-11-20T02:02:13.918Z,9.656064
2018-11-20T02:02:26.300Z,9.656064
2018-11-20T02:02:38.691Z,9.656064
2018-11-20T02:02:51.084Z,9.656064
2018-11-20T02:03:03.654Z,9.656064
2018-11-20T02:03:16.033Z,14.484096
2018-11-20T02:03:28.420Z,14.484096
2018-11-20T02:03:41.000Z,14.484096
2018-11-20T02:03:53.549Z,14.484096
2018-11-20T02:04:06.771Z,6.437376
2018-11-20T02:04:20.558Z,6.437376
2018-11-20T02:04:32.965Z,6.437376
2018-11-20T02:04:45.366Z,6.437376
2018-11-20T02:04:58.181Z,6.437376
2018-11-20T02:05:10.590Z,4.828032
2018-11-20T02:05:22.984Z,6.437376
2018-11-20T02:05:35.378Z,6.437376
2018-11-20T02:05:47.880Z,6.437376
2018-11-20T02:06:00.340Z,6.437376
2018-11-20T02:06:12.719Z,3.218688
2018-11-20T02:06:25.094Z,8.04672
2018-11-20T02:06:37.479Z,9.656064
2018-11-20T02:06:49.995Z,9.656064
2018-11-20T02:07:02.382Z,9.656064
2018-11-20T02:07:14.857Z,3.218688
2018-11-20T02:07:27.267Z,6.437376
2018-11-20T02:07:39.696Z,8.04672
2018-11-20T02:07:52.104Z,11.265408
2018-11-20T02:08:04.626Z,8.04672
2018-11-20T02:08:17.001Z,8.04672
2018-11-20T02:08:29.465Z,14.484096
2018-11-20T02:08:41.857Z,19.312128
2018-11-20T02:08:54.249Z,19.312128
2018-11-20T02:09:06.628Z,9.656064
2018-11-20T02:09:19.011Z,9.656064
2018-11-20T02:09:31.455Z,9.656064
2018-11-20T02:09:43.844Z,9.656064
2018-11-20T02:09:56.231Z,9.656064
2018-11-20T02:10:08.658Z,8.04672
2018-11-20T02:10:21.029Z,8.04672
2018-11-20T02:10:33.404Z,8.04672
2018-11-20T02:10:45.792Z,8.04672
2018-11-20T02:10:58.187Z,8.04672
2018-11-20T02:11:10.584Z,6.437376
2018-11-20T02:11:22.980Z,6.437376
2018-11-20T02:11:35.394Z,6.437376
2018-11-20T02:11:47.770Z,6.437376
2018-11-20T02:12:00.298Z,9.656064
2018-11-20T02:12:12.709Z,9.656064
2018-11-20T02:12:25.081Z,9.656064
2018-11-20T02:12:37.492Z,9.656064
2018-11-20T02:12:49.882Z,11.265408
2018-11-20T02:13:02.280Z,11.265408
2018-11-20T02:13:14.672Z,6.437376
2018-11-20T02:13:27.082Z,6.437376
2018-11-20T02:13:39.471Z,16.09344
2018-11-20T02:13:51.852Z,16.09344
2018-11-20T02:14:04.254Z,16.09344
2018-11-20T02:14:16.652Z,16.09344
2018-11-20T02:14:29.036Z,16.09344
2018-11-20T02:14:41.430Z,16.09344
2018-11-20T02:14:53.806Z,16.09344
2018-11-20T02:15:06.190Z,8.04672
2018-11-20T02:15:18.587Z,12.874752
2018-11-20T02:15:30.956Z,12.874752
2018-11-20T02:15:43.323Z,12.874752
2018-11-20T02:15:55.691Z,12.874752
2018-11-20T02:16:08.103Z,9.656064
2018-11-20T02:16:20.481Z,9.656064
2018-11-20T02:16:32.900Z,9.656064
2018-11-20T02:16:45.632Z,9.656064
2018-11-20T02:16:58.163Z,9.656064
2018-11-20T02:17:10.554Z,11.265408
2018-11-20T02:17:22.950Z,11.265408
2018-11-20T02:17:35.323Z,11.265408
2018-11-20T02:17:47.716Z,11.265408
2018-11-20T02:18:00.101Z,11.265408
2018-11-20T02:18:12.475Z,8.04672
2018-11-20T02:18:24.879Z,12.874752
2018-11-20T02:18:37.261Z,12.874752
2018-11-20T02:18:49.650Z,12.874752
2018-11-20T02:19:02.022Z,12.874752
2018-11-20T02:19:14.402Z,3.218688
2018-11-20T02:19:26.766Z,11.265408
2018-11-20T02:19:39.134Z,11.265408
2018-11-20T02:19:51.528Z,11.265408
2018-11-20T02:20:03.899Z,11.265408
2018-11-20T02:20:16.431Z,1.609344
2018-11-20T02:20:28.806Z,3.218688
2018-11-20T02:20:41.212Z,3.218688
2018-11-20T02:20:53.629Z,3.218688
2018-11-20T02:21:06.018Z,1.609344
2018-11-20T02:21:18.400Z,3.218688
2018-11-20T02:21:30.782Z,9.656064
2018-11-20T02:21:43.166Z,9.656064
2018-11-20T02:21:55.548Z,14.484096
2018-11-20T02:22:08.022Z,11.265408
2018-11-20T02:22:20.421Z,11.265408
2018-11-20T02:22:32.815Z,11.265408
2018-11-20T02:22:45.198Z,11.265408
2018-11-20T02:22:57.600Z,11.265408
2018-11-20T02:23:09.979Z,1.609344
2018-11-20T02:23:22.373Z,3.218688
2018-11-20T02:23:34.781Z,8.04672
2018-11-20T02:23:47.167Z,9.656064
2018-11-20T02:23:59.542Z,9.656064
2018-11-20T02:24:11.933Z,8.04672
2018-11-20T02:24:24.321Z,9.656064
2018-11-20T02:24:36.717Z,9.656064